createdAt,value
2018-04-24T00:00:08.812Z,1006.37
2018-04-24T00:01:08.826Z,1006.38
2018-04-24T00:02:08.858Z,1006.35
2018-04-24T00:03:08.872Z,1006.35
2018-04-24T00:04:08.892Z,1006.36
2018-04-24T00:05:08.922Z,1006.37
2018-04-24T00:06:08.958Z,1006.36
2018-04-24T00:07:08.970Z,1006.36
2018-04-24T00:08:08.991Z,1006.37
2018-04-24T00:09:09.022Z,1006.35
2018-04-24T00:10:09.036Z,1006.38
2018-04-24T00:11:09.064Z,1006.38
2018-04-24T00:12:09.091Z,1006.36
2018-04-24T00:13:09.110Z,1006.33
2018-04-24T00:14:09.138Z,1006.29
2018-04-24T00:15:09.156Z,1006.33
2018-04-24T00:16:09.174Z,1006.35
2018-04-24T00:17:09.204Z,1006.32
2018-04-24T00:18:09.231Z,1006.31
2018-04-24T00:19:09.249Z,1006.30
2018-04-24T00:20:09.277Z,1006.33
2018-04-24T00:21:09.314Z,1006.31
2018-04-24T00:22:09.327Z,1006.25
2018-04-24T00:23:09.343Z,1006.25
2018-04-24T00:24:09.376Z,1006.25
2018-04-24T00:25:09.398Z,1006.22
2018-04-24T00:26:09.417Z,1006.25
2018-04-24T00:27:09.441Z,1006.27
2018-04-24T00:28:09.468Z,1006.24
2018-04-24T00:29:09.483Z,1006.20
2018-04-24T00:30:09.517Z,1006.17
2018-04-24T00:31:09.540Z,1006.20
2018-04-24T00:32:09.555Z,1006.24
2018-04-24T00:33:09.581Z,1006.25
2018-04-24T00:34:09.610Z,1006.20
2018-04-24T00:35:09.634Z,1006.22
2018-04-24T00:36:09.652Z,1006.24
2018-04-24T00:37:09.688Z,1006.21
2018-04-24T00:38:09.700Z,1006.21
2018-04-24T00:39:09.726Z,1006.21
2018-04-24T00:40:09.755Z,1006.23
2018-04-24T00:41:09.771Z,1006.27
2018-04-24T00:42:09.792Z,1006.19
2018-04-24T00:43:09.844Z,1006.23
2018-04-24T00:44:09.843Z,1006.27
2018-04-24T00:45:09.867Z,1006.29
2018-04-24T00:46:09.910Z,1006.32
2018-04-24T00:47:09.918Z,1006.31
2018-04-24T00:48:09.943Z,1006.31
2018-04-24T00:49:09.965Z,1006.29
2018-04-24T00:50:09.987Z,1006.35
2018-04-24T00:51:10.012Z,1006.34
2018-04-24T00:52:10.035Z,1006.32
2018-04-24T00:53:10.056Z,1006.36
2018-04-24T00:54:10.096Z,1006.34
2018-04-24T00:55:10.113Z,1006.33
2018-04-24T00:56:10.132Z,1006.37
2018-04-24T00:57:10.156Z,1006.32
2018-04-24T00:58:10.174Z,1006.33
2018-04-24T00:59:10.200Z,1006.35
2018-04-24T01:00:10.219Z,1006.34
2018-04-24T01:01:10.252Z,1006.36
2018-04-24T01:02:10.275Z,1006.35
2018-04-24T01:03:10.294Z,1006.34
2018-04-24T01:04:10.315Z,1006.39
2018-04-24T01:05:10.344Z,1006.35
2018-04-24T01:06:10.363Z,1006.36
2018-04-24T01:07:10.392Z,1006.36
2018-04-24T01:08:10.430Z,1006.37
2018-04-24T01:09:10.433Z,1006.34
2018-04-24T01:10:10.458Z,1006.35
2018-04-24T01:11:10.482Z,1006.31
2018-04-24T01:12:10.504Z,1006.34
2018-04-24T01:13:10.533Z,1006.33
2018-04-24T01:14:10.556Z,1006.32
2018-04-24T01:15:10.585Z,1006.32
2018-04-24T01:16:10.598Z,1006.36
2018-04-24T01:17:10.624Z,1006.37
2018-04-24T01:18:10.650Z,1006.39
2018-04-24T01:19:10.667Z,1006.36
2018-04-24T01:20:10.700Z,1006.36
2018-04-24T01:21:10.729Z,1006.34
2018-04-24T01:22:10.739Z,1006.33
2018-04-24T01:23:10.768Z,1006.35
2018-04-24T01:24:10.790Z,1006.33
2018-04-24T01:25:10.810Z,1006.34
2018-04-24T01:26:10.845Z,1006.35
2018-04-24T01:27:10.858Z,1006.37
2018-04-24T01:28:10.882Z,1006.41
2018-04-24T01:29:10.935Z,1006.38
2018-04-24T01:30:10.932Z,1006.43
2018-04-24T01:31:10.956Z,1006.45
2018-04-24T01:32:10.977Z,1006.42
2018-04-24T01:33:11.004Z,1006.48
2018-04-24T01:34:11.023Z,1006.44
2018-04-24T01:35:11.059Z,1006.46
2018-04-24T01:36:11.072Z,1006.45
2018-04-24T01:37:11.093Z,1006.48
2018-04-24T01:38:11.114Z,1006.51
2018-04-24T01:39:11.138Z,1006.52
2018-04-24T01:40:11.166Z,1006.53
2018-04-24T01:41:11.186Z,1006.54
2018-04-24T01:42:11.207Z,1006.55
2018-04-24T01:43:11.237Z,1006.56
2018-04-24T01:44:11.258Z,1006.53
2018-04-24T01:45:11.295Z,1006.58
2018-04-24T01:46:11.302Z,1006.61
2018-04-24T01:47:11.328Z,1006.61
2018-04-24T01:48:11.349Z,1006.62
2018-04-24T01:49:11.375Z,1006.63
2018-04-24T01:50:11.400Z,1006.61
2018-04-24T01:51:11.428Z,1006.61
2018-04-24T01:52:11.449Z,1006.62
2018-04-24T01:53:11.472Z,1006.61
2018-04-24T01:54:11.487Z,1006.63
2018-04-24T01:55:11.506Z,1006.65
2018-04-24T01:56:11.537Z,1006.63
2018-04-24T01:57:11.558Z,1006.63
2018-04-24T01:58:11.581Z,1006.63
2018-04-24T01:59:11.606Z,1006.66
2018-04-24T02:00:11.626Z,1006.64
2018-04-24T02:01:11.644Z,1006.67
2018-04-24T02:02:11.676Z,1006.64
2018-04-24T02:03:11.700Z,1006.61
2018-04-24T02:04:11.717Z,1006.63
2018-04-24T02:05:11.753Z,1006.64
2018-04-24T02:06:11.773Z,1006.63
2018-04-24T02:07:11.785Z,1006.62
2018-04-24T02:08:11.813Z,1006.63
2018-04-24T02:09:11.850Z,1006.62
2018-04-24T02:10:11.857Z,1006.64
2018-04-24T02:11:11.883Z,1006.59
2018-04-24T02:12:11.906Z,1006.61
2018-04-24T02:13:11.938Z,1006.60
2018-04-24T02:14:11.951Z,1006.57
2018-04-24T02:15:11.974Z,1006.53
2018-04-24T02:16:12.000Z,1006.56
2018-04-24T02:17:12.022Z,1006.56
2018-04-24T02:18:12.046Z,1006.55
2018-04-24T02:19:12.077Z,1006.57
2018-04-24T02:20:12.085Z,1006.53
2018-04-24T02:21:12.134Z,1006.54
2018-04-24T02:22:12.142Z,1006.52
2018-04-24T02:23:12.159Z,1006.54
2018-04-24T02:24:12.185Z,1006.52
2018-04-24T02:25:12.199Z,1006.49
2018-04-24T02:26:12.227Z,1006.49
2018-04-24T02:27:12.251Z,1006.47
2018-04-24T02:28:12.275Z,1006.47
2018-04-24T02:29:12.299Z,1006.48
2018-04-24T02:30:12.317Z,1006.50
2018-04-24T02:31:12.343Z,1006.49
2018-04-24T02:32:12.370Z,1006.48
2018-04-24T02:33:12.391Z,1006.48
2018-04-24T02:34:12.417Z,1006.48
2018-04-24T02:35:12.442Z,1006.48
2018-04-24T02:36:12.459Z,1006.48
2018-04-24T02:37:12.477Z,1006.46
2018-04-24T02:38:12.503Z,1006.47
2018-04-24T02:39:12.528Z,1006.41
2018-04-24T02:40:12.556Z,1006.42
2018-04-24T02:41:12.574Z,1006.40
2018-04-24T02:42:12.594Z,1006.38
2018-04-24T02:43:12.619Z,1006.37
2018-04-24T02:44:12.654Z,1006.38
2018-04-24T02:45:12.671Z,1006.38
2018-04-24T02:46:12.687Z,1006.36
2018-04-24T02:47:12.740Z,1006.35
2018-04-24T02:48:12.741Z,1006.33
2018-04-24T02:49:12.754Z,1006.37
2018-04-24T02:50:12.776Z,1006.35
2018-04-24T02:51:12.800Z,1006.37
2018-04-24T02:52:12.829Z,1006.34
2018-04-24T02:53:12.849Z,1006.38
2018-04-24T02:54:12.874Z,1006.37
2018-04-24T02:55:12.912Z,1006.35
2018-04-24T02:56:12.914Z,1006.39
2018-04-24T02:57:12.942Z,1006.42
2018-04-24T02:58:12.962Z,1006.43
2018-04-24T02:59:12.986Z,1006.49
2018-04-24T03:00:13.009Z,1006.46
2018-04-24T03:01:13.040Z,1006.43
2018-04-24T03:02:13.066Z,1006.43
2018-04-24T03:03:13.077Z,1006.42
2018-04-24T03:04:13.098Z,1006.38
2018-04-24T03:05:13.125Z,1006.39
2018-04-24T03:06:13.150Z,1006.46
2018-04-24T03:07:13.171Z,1006.40
2018-04-24T03:08:13.191Z,1006.45
2018-04-24T03:09:13.210Z,1006.44
2018-04-24T03:10:13.237Z,1006.50
2018-04-24T03:11:13.259Z,1006.43
2018-04-24T03:12:13.283Z,1006.44
2018-04-24T03:13:13.305Z,1006.36
2018-04-24T03:14:13.328Z,1006.36
2018-04-24T03:15:13.352Z,1006.37
2018-04-24T03:16:13.374Z,1006.38
2018-04-24T03:17:13.405Z,1006.43
2018-04-24T03:18:13.423Z,1006.46
2018-04-24T03:19:13.441Z,1006.50
2018-04-24T03:20:13.465Z,1006.46
2018-04-24T03:21:13.500Z,1006.44
2018-04-24T03:22:13.511Z,1006.45
2018-04-24T03:23:13.533Z,1006.42
2018-04-24T03:24:13.590Z,1006.43
2018-04-24T03:25:13.591Z,1006.41
2018-04-24T03:26:13.601Z,1006.37
2018-04-24T03:27:13.625Z,1006.44
2018-04-24T03:28:13.650Z,1006.43
2018-04-24T03:29:13.672Z,1006.42
2018-04-24T03:30:13.692Z,1006.40
2018-04-24T03:31:13.718Z,1006.39
2018-04-24T03:32:13.737Z,1006.40
2018-04-24T03:33:13.764Z,1006.37
2018-04-24T03:34:13.783Z,1006.32
2018-04-24T03:35:13.805Z,1006.38
2018-04-24T03:36:13.827Z,1006.31
2018-04-24T03:37:13.854Z,1006.37
2018-04-24T03:38:13.883Z,1006.31
2018-04-24T03:39:13.900Z,1006.30
2018-04-24T03:40:13.921Z,1006.28
2018-04-24T03:41:13.940Z,1006.29
2018-04-24T03:42:13.965Z,1006.26
2018-04-24T03:43:13.993Z,1006.25
2018-04-24T03:44:14.013Z,1006.26
2018-04-24T03:45:14.037Z,1006.22
2018-04-24T03:46:14.057Z,1006.23
2018-04-24T03:47:14.080Z,1006.26
2018-04-24T03:48:14.101Z,1006.27
2018-04-24T03:49:14.140Z,1006.24
2018-04-24T03:50:14.156Z,1006.24
2018-04-24T03:51:14.171Z,1006.26
2018-04-24T03:52:14.198Z,1006.27
2018-04-24T03:53:14.219Z,1006.29
2018-04-24T03:54:14.233Z,1006.31
2018-04-24T03:55:14.266Z,1006.27
2018-04-24T03:56:14.291Z,1006.29
2018-04-24T03:57:14.346Z,1006.30
2018-04-24T03:58:14.328Z,1006.27
2018-04-24T03:59:14.351Z,1006.27
2018-04-24T04:00:14.377Z,1006.27
2018-04-24T04:01:14.450Z,1006.29
2018-04-24T04:02:14.422Z,1006.25
2018-04-24T04:03:14.445Z,1006.28
2018-04-24T04:04:14.469Z,1006.22
2018-04-24T04:05:14.488Z,1006.26
2018-04-24T04:06:14.513Z,1006.29
2018-04-24T04:07:14.528Z,1006.28
2018-04-24T04:08:14.560Z,1006.29
2018-04-24T04:09:14.577Z,1006.28
2018-04-24T04:10:14.607Z,1006.28
2018-04-24T04:11:14.625Z,1006.25
2018-04-24T04:12:14.654Z,1006.27
2018-04-24T04:13:14.665Z,1006.29
2018-04-24T04:14:14.689Z,1006.26
2018-04-24T04:15:14.711Z,1006.28
2018-04-24T04:16:14.734Z,1006.24
2018-04-24T04:17:14.763Z,1006.21
2018-04-24T04:18:14.788Z,1006.21
2018-04-24T04:19:14.802Z,1006.19
2018-04-24T04:20:14.822Z,1006.23
2018-04-24T04:21:14.865Z,1006.23
2018-04-24T04:22:14.878Z,1006.23
2018-04-24T04:23:14.900Z,1006.25
2018-04-24T04:24:14.923Z,1006.27
2018-04-24T04:25:14.953Z,1006.28
2018-04-24T04:26:14.961Z,1006.26
2018-04-24T04:27:14.984Z,1006.30
2018-04-24T04:28:15.009Z,1006.28
2018-04-24T04:29:15.034Z,1006.34
2018-04-24T04:30:15.055Z,1006.34
2018-04-24T04:31:15.077Z,1006.34
2018-04-24T04:32:15.097Z,1006.37
2018-04-24T04:33:15.116Z,1006.37
2018-04-24T04:34:15.142Z,1006.38
2018-04-24T04:35:15.166Z,1006.43
2018-04-24T04:36:15.194Z,1006.45
2018-04-24T04:37:15.216Z,1006.47
2018-04-24T04:38:15.230Z,1006.48
2018-04-24T04:39:15.259Z,1006.48
2018-04-24T04:40:15.282Z,1006.55
2018-04-24T04:41:15.309Z,1006.53
2018-04-24T04:42:15.327Z,1006.54
2018-04-24T04:43:15.354Z,1006.58
2018-04-24T04:44:15.382Z,1006.56
2018-04-24T04:45:15.396Z,1006.59
2018-04-24T04:46:15.417Z,1006.62
2018-04-24T04:47:15.439Z,1006.60
2018-04-24T04:48:15.464Z,1006.63
2018-04-24T04:49:15.523Z,1006.63
2018-04-24T04:50:15.555Z,1006.65
2018-04-24T04:51:15.531Z,1006.66
2018-04-24T04:52:15.557Z,1006.63
2018-04-24T04:53:15.588Z,1006.64
2018-04-24T04:54:15.593Z,1006.67
2018-04-24T04:55:15.619Z,1006.66
2018-04-24T04:56:15.640Z,1006.68
2018-04-24T04:57:15.660Z,1006.66
2018-04-24T04:58:15.696Z,1006.69
2018-04-24T04:59:15.715Z,1006.67
2018-04-24T05:00:15.730Z,1006.66
2018-04-24T05:01:15.766Z,1006.67
2018-04-24T05:02:15.789Z,1006.65
2018-04-24T05:03:15.805Z,1006.65
2018-04-24T05:04:15.829Z,1006.66
2018-04-24T05:05:15.918Z,1006.64
2018-04-24T05:06:15.867Z,1006.65
2018-04-24T05:07:15.890Z,1006.63
2018-04-24T05:08:15.916Z,1006.63
2018-04-24T05:09:15.938Z,1006.61
2018-04-24T05:10:15.960Z,1006.60
2018-04-24T05:11:15.984Z,1006.63
2018-04-24T05:12:16.077Z,1006.64
2018-04-24T05:13:16.037Z,1006.65
2018-04-24T05:14:16.063Z,1006.65
2018-04-24T05:15:16.080Z,1006.64
2018-04-24T05:16:16.097Z,1006.66
2018-04-24T05:17:16.123Z,1006.66
2018-04-24T05:18:16.137Z,1006.66
2018-04-24T05:19:16.159Z,1006.68
2018-04-24T05:20:16.218Z,1006.67
2018-04-24T05:21:16.218Z,1006.66
2018-04-24T05:22:16.230Z,1006.66
2018-04-24T05:23:16.261Z,1006.63
2018-04-24T05:24:16.277Z,1006.60
2018-04-24T05:25:16.316Z,1006.62
2018-04-24T05:26:16.324Z,1006.64
2018-04-24T05:27:16.344Z,1006.62
2018-04-24T05:28:16.375Z,1006.69
2018-04-24T05:29:16.390Z,1006.68
2018-04-24T05:30:16.409Z,1006.72
2018-04-24T05:31:16.439Z,1006.69
2018-04-24T05:32:16.506Z,1006.68
2018-04-24T05:33:16.499Z,1006.69
2018-04-24T05:34:16.502Z,1006.65
2018-04-24T05:35:16.532Z,1006.70
2018-04-24T05:36:16.554Z,1006.63
2018-04-24T05:37:16.579Z,1006.69
2018-04-24T05:38:16.598Z,1006.64
2018-04-24T05:39:16.616Z,1006.69
2018-04-24T05:40:16.646Z,1006.74
2018-04-24T05:41:16.670Z,1006.69
2018-04-24T05:42:16.692Z,1006.70
2018-04-24T05:43:16.715Z,1006.66
2018-04-24T05:44:16.738Z,1006.66
2018-04-24T05:45:16.770Z,1006.67
2018-04-24T05:46:16.772Z,1006.66
2018-04-24T05:47:16.802Z,1006.70
2018-04-24T05:48:16.827Z,1006.70
2018-04-24T05:49:16.844Z,1006.68
2018-04-24T05:50:16.875Z,1006.71
2018-04-24T05:51:16.896Z,1006.71
2018-04-24T05:52:16.972Z,1006.71
2018-04-24T05:53:16.939Z,1006.75
2018-04-24T05:54:16.962Z,1006.74
2018-04-24T05:55:16.986Z,1006.74
2018-04-24T05:56:17.007Z,1006.79
2018-04-24T05:57:17.037Z,1006.78
2018-04-24T05:58:17.061Z,1006.81
2018-04-24T05:59:17.080Z,1006.82
2018-04-24T06:00:17.095Z,1006.81
2018-04-24T06:01:17.128Z,1006.83
2018-04-24T06:02:17.143Z,1006.83
2018-04-24T06:03:17.168Z,1006.81
2018-04-24T06:04:17.204Z,1006.84
2018-04-24T06:05:17.210Z,1006.78
2018-04-24T06:06:17.234Z,1006.80
2018-04-24T06:07:17.260Z,1006.83
2018-04-24T06:08:17.378Z,1006.80
2018-04-24T06:09:17.302Z,1006.79
2018-04-24T06:10:17.335Z,1006.76
2018-04-24T06:11:17.366Z,1006.75
2018-04-24T06:12:17.371Z,1006.79
2018-04-24T06:13:17.393Z,1006.77
2018-04-24T06:14:17.424Z,1006.82
2018-04-24T06:15:17.443Z,1006.78
2018-04-24T06:16:17.466Z,1006.77
2018-04-24T06:17:17.485Z,1006.75
2018-04-24T06:18:17.511Z,1006.82
2018-04-24T06:19:17.536Z,1006.84
2018-04-24T06:20:17.561Z,1006.84
2018-04-24T06:21:17.579Z,1006.85
2018-04-24T06:22:17.607Z,1006.83
2018-04-24T06:23:17.629Z,1006.81
2018-04-24T06:24:17.652Z,1006.82
2018-04-24T06:25:17.669Z,1006.84
2018-04-24T06:26:17.697Z,1006.81
2018-04-24T06:27:17.724Z,1006.82
2018-04-24T06:28:17.754Z,1006.79
2018-04-24T06:29:17.807Z,1006.84
2018-04-24T06:30:17.798Z,1006.82
2018-04-24T06:31:17.816Z,1006.79
2018-04-24T06:32:17.900Z,1006.85
2018-04-24T06:33:17.851Z,1006.84
2018-04-24T06:34:17.890Z,1006.84
2018-04-24T06:35:17.902Z,1006.83
2018-04-24T06:36:17.929Z,1006.84
2018-04-24T06:37:17.946Z,1006.87
2018-04-24T06:38:17.972Z,1006.86
2018-04-24T06:39:17.999Z,1006.83
2018-04-24T06:40:18.029Z,1006.88
2018-04-24T06:41:18.042Z,1006.87
2018-04-24T06:42:18.086Z,1006.87
2018-04-24T06:43:18.090Z,1006.84
2018-04-24T06:44:18.163Z,1006.88
2018-04-24T06:45:18.136Z,1006.82
2018-04-24T06:46:18.164Z,1006.89
2018-04-24T06:47:18.185Z,1006.85
2018-04-24T06:48:18.203Z,1006.87
2018-04-24T06:49:18.234Z,1006.86
2018-04-24T06:50:18.257Z,1006.85
2018-04-24T06:51:18.276Z,1006.82
2018-04-24T06:52:18.299Z,1006.83
2018-04-24T06:53:18.326Z,1006.79
2018-04-24T06:54:18.444Z,1006.75
2018-04-24T06:55:18.377Z,1006.80
2018-04-24T06:56:18.408Z,1006.86
2018-04-24T06:57:18.418Z,1006.84
2018-04-24T06:58:18.437Z,1006.84
2018-04-24T06:59:18.473Z,1006.86
2018-04-24T07:00:18.482Z,1006.84
2018-04-24T07:01:18.512Z,1006.86
2018-04-24T07:02:18.544Z,1006.88
2018-04-24T07:03:18.593Z,1006.92
2018-04-24T07:04:18.579Z,1006.92
2018-04-24T07:05:18.619Z,1006.89
2018-04-24T07:06:18.645Z,1006.88
2018-04-24T07:07:18.643Z,1006.89
2018-04-24T07:08:18.670Z,1006.92
2018-04-24T07:09:18.693Z,1006.93
2018-04-24T07:10:18.730Z,1006.92
2018-04-24T07:11:18.747Z,1006.97
2018-04-24T07:12:18.770Z,1006.97
2018-04-24T07:13:18.786Z,1006.94
2018-04-24T07:14:18.813Z,1006.91
2018-04-24T07:15:18.847Z,1006.92
2018-04-24T07:16:18.865Z,1006.91
2018-04-24T07:17:18.893Z,1006.95
2018-04-24T07:18:18.908Z,1006.96
2018-04-24T07:19:18.937Z,1006.99
2018-04-24T07:20:18.953Z,1006.95
2018-04-24T07:21:18.984Z,1006.93
2018-04-24T07:22:19.062Z,1006.96
2018-04-24T07:23:19.020Z,1006.92
2018-04-24T07:24:19.046Z,1006.91
2018-04-24T07:25:19.080Z,1006.96
2018-04-24T07:26:19.090Z,1006.90
2018-04-24T07:27:19.116Z,1006.92
2018-04-24T07:28:19.138Z,1006.94
2018-04-24T07:29:19.162Z,1006.92
2018-04-24T07:30:19.196Z,1006.95
2018-04-24T07:31:19.292Z,1006.95
2018-04-24T07:32:19.249Z,1006.97
2018-04-24T07:33:19.257Z,1006.90
2018-04-24T07:34:19.286Z,1006.95
2018-04-24T07:35:19.308Z,1006.97
2018-04-24T07:36:19.330Z,1006.94
2018-04-24T07:37:19.357Z,1006.91
2018-04-24T07:38:19.376Z,1006.92
2018-04-24T07:39:19.401Z,1006.94
2018-04-24T07:40:19.423Z,1006.94
2018-04-24T07:41:19.452Z,1006.95
2018-04-24T07:42:19.475Z,1006.93
2018-04-24T07:43:19.502Z,1007.00
2018-04-24T07:44:19.520Z,1006.98
2018-04-24T07:45:19.543Z,1007.00
2018-04-24T07:46:19.569Z,1007.01
2018-04-24T07:47:19.604Z,1006.97
2018-04-24T07:48:19.617Z,1006.93
2018-04-24T07:49:19.634Z,1006.93
2018-04-24T07:50:19.668Z,1006.92
2018-04-24T07:51:19.690Z,1006.97
2018-04-24T07:52:19.705Z,1006.92
2018-04-24T07:53:19.733Z,1006.93
2018-04-24T07:54:19.760Z,1006.88
2018-04-24T07:55:19.782Z,1006.88
2018-04-24T07:56:19.810Z,1006.89
2018-04-24T07:57:19.832Z,1006.92
2018-04-24T07:58:19.871Z,1006.89
2018-04-24T07:59:19.897Z,1006.90
2018-04-24T08:00:19.902Z,1006.90
2018-04-24T08:01:19.920Z,1006.88
2018-04-24T08:02:19.944Z,1006.91
2018-04-24T08:03:19.971Z,1006.88
2018-04-24T08:04:19.989Z,1006.94
2018-04-24T08:05:20.026Z,1006.88
2018-04-24T08:06:20.049Z,1006.87
2018-04-24T08:07:20.064Z,1006.87
2018-04-24T08:08:20.171Z,1006.86
2018-04-24T08:09:20.116Z,1006.87
2018-04-24T08:10:20.146Z,1006.85
2018-04-24T08:11:20.159Z,1006.85
2018-04-24T08:12:20.195Z,1006.90
2018-04-24T08:13:20.202Z,1006.83
2018-04-24T08:14:20.229Z,1006.82
2018-04-24T08:15:20.259Z,1006.82
2018-04-24T08:16:20.289Z,1006.84
2018-04-24T08:17:20.300Z,1006.85
2018-04-24T08:18:20.331Z,1006.90
2018-04-24T08:19:20.350Z,1006.92
2018-04-24T08:20:20.372Z,1006.94
2018-04-24T08:21:20.395Z,1006.89
2018-04-24T08:22:20.421Z,1006.90
2018-04-24T08:23:20.445Z,1006.99
2018-04-24T08:24:20.473Z,1006.95
2018-04-24T08:25:20.497Z,1006.92
2018-04-24T08:26:20.518Z,1006.92
2018-04-24T08:27:20.550Z,1006.89
2018-04-24T08:28:20.570Z,1006.97
2018-04-24T08:29:20.588Z,1006.91
2018-04-24T08:30:20.616Z,1006.90
2018-04-24T08:31:20.641Z,1006.91
2018-04-24T08:32:20.662Z,1006.93
2018-04-24T08:33:20.710Z,1006.89
2018-04-24T08:34:20.725Z,1006.96
2018-04-24T08:35:20.736Z,1006.98
2018-04-24T08:36:20.768Z,1006.97
2018-04-24T08:37:20.789Z,1006.99
2018-04-24T08:38:20.806Z,1006.94
2018-04-24T08:39:20.832Z,1006.94
2018-04-24T08:40:20.860Z,1007.00
2018-04-24T08:41:20.882Z,1007.00
2018-04-24T08:42:20.918Z,1006.95
2018-04-24T08:43:20.934Z,1006.93
2018-04-24T08:44:20.955Z,1006.99
2018-04-24T08:45:21.009Z,1006.93
2018-04-24T08:46:21.004Z,1006.96
2018-04-24T08:47:21.029Z,1006.95
2018-04-24T08:48:21.054Z,1006.92
2018-04-24T08:49:21.100Z,1006.90
2018-04-24T08:50:21.101Z,1006.88
2018-04-24T08:51:21.126Z,1006.87
2018-04-24T08:52:21.149Z,1006.86
2018-04-24T08:53:21.170Z,1006.88
2018-04-24T08:54:21.207Z,1006.96
2018-04-24T08:55:21.219Z,1006.93
2018-04-24T08:56:21.254Z,1006.92
2018-04-24T08:57:21.285Z,1006.93
2018-04-24T08:58:21.300Z,1006.94
2018-04-24T08:59:21.317Z,1006.96
2018-04-24T09:00:21.342Z,1006.96
2018-04-24T09:01:21.374Z,1006.94
2018-04-24T09:02:21.396Z,1006.97
2018-04-24T09:03:21.425Z,1007.01
2018-04-24T09:04:21.448Z,1006.93
2018-04-24T09:05:21.467Z,1006.99
2018-04-24T09:06:21.490Z,1006.91
2018-04-24T09:07:21.513Z,1006.90
2018-04-24T09:08:21.540Z,1006.95
2018-04-24T09:09:21.583Z,1007.03
2018-04-24T09:10:21.617Z,1006.96
2018-04-24T09:11:21.613Z,1007.05
2018-04-24T09:12:21.638Z,1007.03
2018-04-24T09:13:21.663Z,1007.04
2018-04-24T09:14:21.682Z,1006.96
2018-04-24T09:15:21.747Z,1006.97
2018-04-24T09:16:21.731Z,1007.00
2018-04-24T09:17:21.762Z,1006.95
2018-04-24T09:18:21.791Z,1006.98
2018-04-24T09:19:21.810Z,1006.93
2018-04-24T09:20:21.832Z,1006.97
2018-04-24T09:21:21.858Z,1006.97
2018-04-24T09:22:21.926Z,1006.89
2018-04-24T09:23:21.907Z,1006.98
2018-04-24T09:24:21.931Z,1006.95
2018-04-24T09:25:21.956Z,1006.92
2018-04-24T09:26:21.978Z,1006.91
2018-04-24T09:27:22.016Z,1006.95
2018-04-24T09:28:22.025Z,1006.88
2018-04-24T09:29:22.052Z,1006.88
2018-04-24T09:30:22.077Z,1006.91
2018-04-24T09:31:22.101Z,1006.90
2018-04-24T09:32:22.124Z,1006.90
2018-04-24T09:33:22.153Z,1006.81
2018-04-24T09:34:22.176Z,1006.81
2018-04-24T09:35:22.198Z,1006.78
2018-04-24T09:36:22.224Z,1006.84
2018-04-24T09:37:22.246Z,1006.78
2018-04-24T09:38:22.271Z,1006.79
2018-04-24T09:39:22.301Z,1006.76
2018-04-24T09:40:22.323Z,1006.81
2018-04-24T09:41:22.351Z,1006.81
2018-04-24T09:42:22.378Z,1006.79
2018-04-24T09:43:22.399Z,1006.83
2018-04-24T09:44:22.423Z,1006.85
2018-04-24T09:45:22.461Z,1006.84
2018-04-24T09:46:22.467Z,1006.81
2018-04-24T09:47:22.521Z,1006.79
2018-04-24T09:48:22.523Z,1006.80
2018-04-24T09:49:22.561Z,1006.79
2018-04-24T09:50:22.573Z,1006.83
2018-04-24T09:51:22.601Z,1006.86
2018-04-24T09:52:22.620Z,1006.81
2018-04-24T09:53:22.643Z,1006.90
2018-04-24T09:54:22.667Z,1006.85
2018-04-24T09:55:22.691Z,1006.84
2018-04-24T09:56:22.725Z,1006.74
2018-04-24T09:57:22.752Z,1006.75
2018-04-24T09:58:22.766Z,1006.78
2018-04-24T09:59:22.797Z,1006.73
2018-04-24T10:00:22.824Z,1006.75
2018-04-24T10:01:22.845Z,1006.79
2018-04-24T10:02:22.871Z,1006.80
2018-04-24T10:03:22.898Z,1006.76
2018-04-24T10:04:22.923Z,1006.77
2018-04-24T10:05:22.944Z,1006.77
2018-04-24T10:06:22.977Z,1006.81
2018-04-24T10:07:22.995Z,1006.73
2018-04-24T10:08:23.025Z,1006.78
2018-04-24T10:09:23.044Z,1006.78
2018-04-24T10:10:23.067Z,1006.80
2018-04-24T10:11:23.100Z,1006.73
2018-04-24T10:12:23.123Z,1006.78
2018-04-24T10:13:23.152Z,1006.70
2018-04-24T10:14:23.184Z,1006.65
2018-04-24T10:15:23.199Z,1006.65
2018-04-24T10:16:23.227Z,1006.75
2018-04-24T10:17:23.249Z,1006.72
2018-04-24T10:18:23.270Z,1006.63
2018-04-24T10:19:23.306Z,1006.68
2018-04-24T10:20:23.327Z,1006.69
2018-04-24T10:21:23.348Z,1006.64
2018-04-24T10:22:23.377Z,1006.56
2018-04-24T10:23:23.401Z,1006.60
2018-04-24T10:24:23.491Z,1006.61
2018-04-24T10:25:23.446Z,1006.64
2018-04-24T10:26:23.481Z,1006.59
2018-04-24T10:27:23.508Z,1006.55
2018-04-24T10:28:23.528Z,1006.58
2018-04-24T10:29:23.552Z,1006.57
2018-04-24T10:30:23.583Z,1006.57
2018-04-24T10:31:23.605Z,1006.54
2018-04-24T10:32:23.628Z,1006.55
2018-04-24T10:33:23.657Z,1006.52
2018-04-24T10:34:23.682Z,1006.54
2018-04-24T10:35:23.706Z,1006.51
2018-04-24T10:36:23.731Z,1006.48
2018-04-24T10:37:23.762Z,1006.53
2018-04-24T10:38:23.783Z,1006.52
2018-04-24T10:39:23.812Z,1006.48
2018-04-24T10:40:23.835Z,1006.44
2018-04-24T10:41:23.866Z,1006.46
2018-04-24T10:42:23.879Z,1006.49
2018-04-24T10:43:23.911Z,1006.45
2018-04-24T10:44:23.936Z,1006.45
2018-04-24T10:45:23.960Z,1006.44
2018-04-24T10:46:23.992Z,1006.45
2018-04-24T10:47:24.013Z,1006.49
2018-04-24T10:48:24.050Z,1006.48
2018-04-24T10:49:24.066Z,1006.46
2018-04-24T10:50:24.090Z,1006.46
2018-04-24T10:51:24.222Z,1006.39
2018-04-24T10:52:24.141Z,1006.43
2018-04-24T10:53:24.159Z,1006.39
2018-04-24T10:54:24.222Z,1006.39
2018-04-24T10:55:24.218Z,1006.37
2018-04-24T10:56:24.247Z,1006.34
2018-04-24T10:57:24.272Z,1006.39
2018-04-24T10:58:24.293Z,1006.38
2018-04-24T10:59:24.391Z,1006.41
2018-04-24T11:00:24.344Z,1006.36
2018-04-24T11:01:24.389Z,1006.39
2018-04-24T11:02:24.398Z,1006.40
2018-04-24T11:03:24.430Z,1006.41
2018-04-24T11:04:24.477Z,1006.38
2018-04-24T11:05:24.479Z,1006.40
2018-04-24T11:06:24.506Z,1006.47
2018-04-24T11:07:24.532Z,1006.37
2018-04-24T11:08:24.564Z,1006.43
2018-04-24T11:09:24.577Z,1006.42
2018-04-24T11:10:24.609Z,1006.42
2018-04-24T11:11:24.640Z,1006.44
2018-04-24T11:12:24.652Z,1006.40
2018-04-24T11:13:24.687Z,1006.32
2018-04-24T11:14:24.706Z,1006.36
2018-04-24T11:15:24.738Z,1006.36
2018-04-24T11:16:24.763Z,1006.33
2018-04-24T11:17:24.790Z,1006.25
2018-04-24T11:18:24.815Z,1006.19
2018-04-24T11:19:24.845Z,1006.27
2018-04-24T11:20:24.865Z,1006.24
2018-04-24T11:21:24.952Z,1006.27
2018-04-24T11:22:24.920Z,1006.27
2018-04-24T11:23:24.953Z,1006.23
2018-04-24T11:24:24.971Z,1006.28
2018-04-24T11:25:24.991Z,1006.26
2018-04-24T11:26:25.147Z,1006.30
2018-04-24T11:27:25.046Z,1006.25
2018-04-24T11:28:25.076Z,1006.19
2018-04-24T11:29:25.102Z,1006.20
2018-04-24T11:30:25.143Z,1006.26
2018-04-24T11:31:25.152Z,1006.25
2018-04-24T11:32:25.229Z,1006.26
2018-04-24T11:33:25.206Z,1006.23
2018-04-24T11:34:25.260Z,1006.17
2018-04-24T11:35:25.274Z,1006.24
2018-04-24T11:36:25.283Z,1006.23
2018-04-24T11:37:25.316Z,1006.22
2018-04-24T11:38:25.337Z,1006.19
2018-04-24T11:39:25.364Z,1006.19
2018-04-24T11:40:25.400Z,1006.18
2018-04-24T11:41:25.488Z,1006.10
2018-04-24T11:42:25.439Z,1006.12
2018-04-24T11:43:25.471Z,1006.04
2018-04-24T11:44:25.494Z,1006.05
2018-04-24T11:45:25.529Z,1006.06
2018-04-24T11:46:25.574Z,1006.02
2018-04-24T11:47:25.572Z,1006.04
2018-04-24T11:48:25.612Z,1006.02
2018-04-24T11:49:25.630Z,1006.01
2018-04-24T11:50:25.654Z,1006.03
2018-04-24T11:51:25.684Z,1006.04
2018-04-24T11:52:25.706Z,1006.02
2018-04-24T11:53:25.732Z,1006.00
2018-04-24T11:54:25.761Z,1005.99
2018-04-24T11:55:25.795Z,1005.96
2018-04-24T11:56:25.822Z,1005.97
2018-04-24T11:57:25.840Z,1005.98
2018-04-24T11:58:25.865Z,1005.95
2018-04-24T11:59:25.894Z,1005.98
2018-04-24T12:00:25.923Z,1005.99
2018-04-24T12:01:25.948Z,1005.97
2018-04-24T12:02:25.978Z,1005.97
2018-04-24T12:03:26.017Z,1006.03
2018-04-24T12:04:26.033Z,1006.00
2018-04-24T12:05:26.061Z,1005.96